createdAt,value
2022-09-06T00:00:32.790Z,1008.49
2022-09-06T00:01:32.760Z,1008.52
2022-09-06T00:02:32.961Z,1008.48
2022-09-06T00:03:32.845Z,1008.48
2022-09-06T00:04:33.383Z,1008.49
2022-09-06T00:05:32.823Z,1008.45
2022-09-06T00:06:33.124Z,1008.43
2022-09-06T00:07:32.782Z,1008.43
2022-09-06T00:08:32.678Z,1008.44
2022-09-06T00:09:32.735Z,1008.42
2022-09-06T00:10:32.801Z,1008.40
2022-09-06T00:11:32.934Z,1008.41
2022-09-06T00:12:32.783Z,1008.42
2022-09-06T00:13:32.629Z,1008.38
2022-09-06T00:14:32.592Z,1008.39
2022-09-06T00:15:32.629Z,1008.40
2022-09-06T00:16:32.950Z,1008.42
2022-09-06T00:17:32.643Z,1008.39
2022-09-06T00:18:32.614Z,1008.40
2022-09-06T00:19:32.797Z,1008.38
2022-09-06T00:20:32.532Z,1008.40
2022-09-06T00:21:32.522Z,1008.37
2022-09-06T00:22:32.532Z,1008.38
2022-09-06T00:23:32.626Z,1008.35
2022-09-06T00:24:32.587Z,1008.33
2022-09-06T00:25:32.607Z,1008.35
2022-09-06T00:26:32.494Z,1008.34
2022-09-06T00:27:32.484Z,1008.29
2022-09-06T00:28:32.490Z,1008.30
2022-09-06T00:29:32.487Z,1008.26
2022-09-06T00:30:32.376Z,1008.22
2022-09-06T00:31:32.487Z,1008.23
2022-09-06T00:32:32.487Z,1008.21
2022-09-06T00:33:32.390Z,1008.21
2022-09-06T00:34:32.668Z,1008.19
2022-09-06T00:35:32.488Z,1008.22
2022-09-06T00:36:32.399Z,1008.23
2022-09-06T00:37:32.400Z,1008.24
2022-09-06T00:38:32.330Z,1008.23
2022-09-06T00:39:32.381Z,1008.22
2022-09-06T00:40:32.383Z,1008.19
2022-09-06T00:41:32.334Z,1008.18
2022-09-06T00:42:32.306Z,1008.17
2022-09-06T00:43:32.282Z,1008.20
2022-09-06T00:44:32.399Z,1008.23
2022-09-06T00:45:32.294Z,1008.21
2022-09-06T00:46:32.434Z,1008.19
2022-09-06T00:47:32.356Z,1008.20
2022-09-06T00:48:32.277Z,1008.18
2022-09-06T00:49:32.244Z,1008.21
2022-09-06T00:50:32.331Z,1008.17
2022-09-06T00:51:32.282Z,1008.16
2022-09-06T00:52:32.201Z,1008.20
2022-09-06T00:53:32.218Z,1008.17
2022-09-06T00:54:32.154Z,1008.18
2022-09-06T00:55:32.383Z,1008.18
2022-09-06T00:56:32.125Z,1008.13
2022-09-06T00:57:32.182Z,1008.14
2022-09-06T00:58:32.123Z,1008.15
2022-09-06T00:59:32.250Z,1008.13
2022-09-06T01:00:32.211Z,1008.13
2022-09-06T01:01:32.339Z,1008.12
2022-09-06T01:02:32.243Z,1008.12
2022-09-06T01:03:32.285Z,1008.07
2022-09-06T01:04:32.110Z,1008.05
2022-09-06T01:05:32.067Z,1007.99
2022-09-06T01:06:32.066Z,1008.01
2022-09-06T01:07:32.043Z,1008.01
2022-09-06T01:08:32.075Z,1007.99
2022-09-06T01:09:32.043Z,1007.98
2022-09-06T01:10:32.031Z,1007.99
2022-09-06T01:11:31.967Z,1007.95
2022-09-06T01:12:32.050Z,1007.94
2022-09-06T01:13:32.236Z,1007.97
2022-09-06T01:14:32.147Z,1007.94
2022-09-06T01:15:31.949Z,1007.91
2022-09-06T01:16:32.018Z,1007.94
2022-09-06T01:17:32.153Z,1007.93
2022-09-06T01:18:31.884Z,1007.95
2022-09-06T01:19:31.936Z,1007.97
2022-09-06T01:20:31.932Z,1007.98
2022-09-06T01:21:31.994Z,1007.99
2022-09-06T01:22:32.007Z,1007.98
2022-09-06T01:23:31.901Z,1008.01
2022-09-06T01:24:31.854Z,1008.01
2022-09-06T01:25:31.853Z,1008.00
2022-09-06T01:26:31.829Z,1008.00
2022-09-06T01:27:31.825Z,1007.98
2022-09-06T01:28:31.821Z,1007.97
2022-09-06T01:29:31.836Z,1007.94
2022-09-06T01:30:31.854Z,1007.95
2022-09-06T01:33:53.293Z,1007.88
2022-09-06T01:35:01.071Z,1007.89
2022-09-06T01:36:16.700Z,1007.88
2022-09-06T01:39:25.875Z,1007.95
2022-09-06T01:40:24.719Z,1007.94
2022-09-06T01:47:10.787Z,1007.89
2022-09-06T01:52:37.600Z,1007.92
2022-09-06T01:53:37.375Z,1007.96
2022-09-06T01:58:57.828Z,1007.94
2022-09-06T01:59:56.554Z,1007.93
2022-09-06T02:00:56.414Z,1007.91
2022-09-06T02:01:56.738Z,1007.82
2022-09-06T02:02:56.262Z,1007.76
2022-09-06T02:03:56.252Z,1007.73
2022-09-06T02:04:56.389Z,1007.74
2022-09-06T02:05:56.279Z,1007.71
2022-09-06T02:06:56.290Z,1007.68
2022-09-06T02:07:56.307Z,1007.70
2022-09-06T02:08:56.329Z,1007.74
2022-09-06T02:09:56.209Z,1007.75
2022-09-06T02:10:56.149Z,1007.83
2022-09-06T02:11:56.115Z,1007.83
2022-09-06T02:12:56.126Z,1007.83
2022-09-06T02:13:56.153Z,1007.81
2022-09-06T02:14:56.089Z,1007.86
2022-09-06T02:15:56.049Z,1007.79
2022-09-06T02:16:56.050Z,1007.77
2022-09-06T02:17:56.478Z,1007.75
2022-09-06T02:18:56.093Z,1007.73
2022-09-06T02:19:55.993Z,1007.74
2022-09-06T02:20:56.025Z,1007.77
2022-09-06T02:21:56.071Z,1007.75
2022-09-06T02:22:55.974Z,1007.75
2022-09-06T02:23:56.160Z,1007.76
2022-09-06T02:24:56.055Z,1007.73
2022-09-06T02:25:55.935Z,1007.76
2022-09-06T02:26:56.359Z,1007.70
2022-09-06T02:27:56.018Z,1007.76
2022-09-06T02:28:55.969Z,1007.79
2022-09-06T02:29:55.975Z,1007.75
2022-09-06T02:30:55.957Z,1007.77
2022-09-06T02:31:56.053Z,1007.80
2022-09-06T02:32:55.913Z,1007.82
2022-09-06T02:33:55.970Z,1007.82
2022-09-06T02:34:55.855Z,1007.83
2022-09-06T02:35:55.842Z,1007.81
2022-09-06T02:36:55.894Z,1007.83
2022-09-06T02:37:55.880Z,1007.80
2022-09-06T02:38:55.835Z,1007.74
2022-09-06T02:39:56.062Z,1007.78
2022-09-06T02:40:55.985Z,1007.74
2022-09-06T02:41:55.909Z,1007.76
2022-09-06T02:42:55.814Z,1007.73
2022-09-06T02:43:55.891Z,1007.72
2022-09-06T02:44:55.712Z,1007.71
2022-09-06T02:45:55.854Z,1007.71
2022-09-06T02:46:57.252Z,1007.69
2022-09-06T02:47:55.715Z,1007.69
2022-09-06T02:48:55.847Z,1007.70
2022-09-06T02:49:55.737Z,1007.72
2022-09-06T02:50:55.945Z,1007.69
2022-09-06T02:51:55.679Z,1007.70
2022-09-06T02:52:55.682Z,1007.68
2022-09-06T02:53:55.676Z,1007.69
2022-09-06T02:54:55.722Z,1007.67
2022-09-06T02:55:55.714Z,1007.62
2022-09-06T02:56:55.816Z,1007.68
2022-09-06T02:57:55.661Z,1007.67
2022-09-06T02:58:55.632Z,1007.66
2022-09-06T02:59:55.844Z,1007.65
2022-09-06T03:00:55.873Z,1007.65
2022-09-06T03:01:55.700Z,1007.63
2022-09-06T03:02:55.641Z,1007.60
2022-09-06T03:03:55.690Z,1007.58
2022-09-06T03:04:55.856Z,1007.58
2022-09-06T03:05:55.529Z,1007.57
2022-09-06T03:06:55.502Z,1007.56
2022-09-06T03:07:55.699Z,1007.56
2022-09-06T03:08:55.568Z,1007.53
2022-09-06T03:09:55.540Z,1007.56
2022-09-06T03:10:55.480Z,1007.48
2022-09-06T03:11:55.750Z,1007.49
2022-09-06T03:12:55.484Z,1007.49
2022-09-06T03:13:55.414Z,1007.50
2022-09-06T03:14:55.525Z,1007.50
2022-09-06T03:15:55.502Z,1007.53
2022-09-06T03:16:55.407Z,1007.50
2022-09-06T03:17:55.665Z,1007.54
2022-09-06T03:18:55.500Z,1007.50
2022-09-06T03:19:55.910Z,1007.52
2022-09-06T03:20:55.494Z,1007.48
2022-09-06T03:21:55.443Z,1007.46
2022-09-06T03:22:55.405Z,1007.49
2022-09-06T03:23:55.361Z,1007.47
2022-09-06T03:24:55.376Z,1007.48
2022-09-06T03:25:55.311Z,1007.45
2022-09-06T03:26:55.383Z,1007.49
2022-09-06T03:27:55.516Z,1007.48
2022-09-06T03:28:55.363Z,1007.48
2022-09-06T03:29:55.254Z,1007.49
2022-09-06T03:30:55.490Z,1007.49
2022-09-06T03:31:55.243Z,1007.47
2022-09-06T03:32:55.264Z,1007.48
2022-09-06T03:33:55.261Z,1007.44
2022-09-06T03:34:55.243Z,1007.45
2022-09-06T03:35:55.383Z,1007.47
2022-09-06T03:36:55.209Z,1007.41
2022-09-06T03:37:55.306Z,1007.41
2022-09-06T03:38:55.287Z,1007.47
2022-09-06T03:39:55.369Z,1007.45
2022-09-06T03:40:55.484Z,1007.42
2022-09-06T03:41:55.201Z,1007.41
2022-09-06T03:42:55.166Z,1007.31
2022-09-06T03:43:55.183Z,1007.32
2022-09-06T03:44:55.314Z,1007.32
2022-09-06T03:45:55.352Z,1007.31
2022-09-06T03:46:55.252Z,1007.34
2022-09-06T03:47:55.025Z,1007.34
2022-09-06T03:48:55.162Z,1007.34
2022-09-06T03:49:55.048Z,1007.35
2022-09-06T03:50:55.085Z,1007.38
2022-09-06T03:51:55.001Z,1007.37
2022-09-06T03:52:55.060Z,1007.42
2022-09-06T03:53:55.002Z,1007.39
2022-09-06T03:54:55.227Z,1007.48
2022-09-06T03:55:55.002Z,1007.48
2022-09-06T03:56:55.077Z,1007.62
2022-09-06T03:57:54.963Z,1007.72
2022-09-06T03:58:55.023Z,1007.76
2022-09-06T03:59:55.312Z,1007.74
2022-09-06T04:00:55.173Z,1007.69
2022-09-06T04:01:55.067Z,1007.61
2022-09-06T04:02:58.578Z,1007.58
2022-09-06T04:03:56.008Z,1007.61
2022-09-06T04:04:54.835Z,1007.60
2022-09-06T04:05:54.931Z,1007.57
2022-09-06T04:06:54.967Z,1007.55
2022-09-06T04:07:54.838Z,1007.54
2022-09-06T04:08:54.804Z,1007.54
2022-09-06T04:09:54.825Z,1007.51
2022-09-06T04:10:54.847Z,1007.53
2022-09-06T04:11:54.949Z,1007.57
2022-09-06T04:12:54.809Z,1007.53
2022-09-06T04:13:55.007Z,1007.54
2022-09-06T04:14:54.781Z,1007.52
2022-09-06T04:15:54.756Z,1007.50
2022-09-06T04:16:54.837Z,1007.54
2022-09-06T04:17:54.794Z,1007.48
2022-09-06T04:18:54.746Z,1007.49
2022-09-06T04:19:54.716Z,1007.47
2022-09-06T04:20:54.869Z,1007.51
2022-09-06T04:21:57.834Z,1007.47
2022-09-06T04:22:54.741Z,1007.45
2022-09-06T04:23:54.762Z,1007.46
2022-09-06T04:24:54.742Z,1007.41
2022-09-06T04:25:54.743Z,1007.41
2022-09-06T04:26:54.983Z,1007.42
2022-09-06T04:27:54.676Z,1007.42
2022-09-06T04:28:54.672Z,1007.43
2022-09-06T04:29:55.126Z,1007.40
2022-09-06T04:30:54.670Z,1007.35
2022-09-06T04:31:55.038Z,1007.33
2022-09-06T04:32:54.864Z,1007.33
2022-09-06T04:33:54.707Z,1007.34
2022-09-06T04:34:54.936Z,1007.32
2022-09-06T04:35:54.576Z,1007.32
2022-09-06T04:36:54.817Z,1007.34
2022-09-06T04:37:54.632Z,1007.37
2022-09-06T04:38:54.559Z,1007.35
2022-09-06T04:39:54.809Z,1007.35
2022-09-06T04:40:54.621Z,1007.36
2022-09-06T04:41:54.547Z,1007.32
2022-09-06T04:42:54.527Z,1007.31
2022-09-06T04:43:54.614Z,1007.30
2022-09-06T04:44:54.600Z,1007.26
2022-09-06T04:45:54.475Z,1007.29
2022-09-06T04:46:56.084Z,1007.30
2022-09-06T04:47:54.484Z,1007.34
2022-09-06T04:48:54.526Z,1007.37
2022-09-06T04:49:54.677Z,1007.34
2022-09-06T04:50:54.503Z,1007.31
2022-09-06T04:51:54.429Z,1007.33
2022-09-06T04:52:54.454Z,1007.34
2022-09-06T04:53:54.346Z,1007.34
2022-09-06T04:54:55.147Z,1007.36
2022-09-06T04:55:54.392Z,1007.40
2022-09-06T04:56:55.259Z,1007.41
2022-09-06T04:57:54.493Z,1007.42
2022-09-06T04:58:54.452Z,1007.45
2022-09-06T04:59:54.462Z,1007.41
2022-09-06T05:00:54.345Z,1007.40
2022-09-06T05:01:54.458Z,1007.42
2022-09-06T05:02:54.482Z,1007.42
2022-09-06T05:03:56.956Z,1007.45
2022-09-06T05:04:54.277Z,1007.44
2022-09-06T05:05:54.368Z,1007.40
2022-09-06T05:06:54.289Z,1007.39
2022-09-06T05:07:54.338Z,1007.46
2022-09-06T05:08:54.225Z,1007.45
2022-09-06T05:09:54.444Z,1007.45
2022-09-06T05:10:54.309Z,1007.50
2022-09-06T05:11:54.179Z,1007.54
2022-09-06T05:12:54.296Z,1007.53
2022-09-06T05:13:54.153Z,1007.55
2022-09-06T05:14:54.283Z,1007.49
2022-09-06T05:15:54.293Z,1007.52
2022-09-06T05:16:54.381Z,1007.45
2022-09-06T05:17:54.105Z,1007.46
2022-09-06T05:18:54.173Z,1007.43
2022-09-06T05:19:54.108Z,1007.47
2022-09-06T05:20:54.201Z,1007.46
2022-09-06T05:22:00.985Z,1007.45
2022-09-06T05:22:53.975Z,1007.54
2022-09-06T05:23:58.360Z,1007.54
2022-09-06T05:24:53.954Z,1007.50
2022-09-06T05:25:53.969Z,1007.45
2022-09-06T05:26:53.965Z,1007.44
2022-09-06T05:27:53.946Z,1007.46
2022-09-06T05:28:53.922Z,1007.50
2022-09-06T05:29:53.914Z,1007.50
2022-09-06T05:30:53.902Z,1007.50
2022-09-06T05:31:53.950Z,1007.47
2022-09-06T05:32:53.868Z,1007.48
2022-09-06T05:33:53.847Z,1007.48
2022-09-06T05:34:53.845Z,1007.47
2022-09-06T05:35:53.831Z,1007.47
2022-09-06T05:36:53.821Z,1007.49
2022-09-06T05:37:53.807Z,1007.50
2022-09-06T05:38:53.798Z,1007.53
2022-09-06T05:39:53.856Z,1007.57
2022-09-06T05:40:53.765Z,1007.62
2022-09-06T05:41:53.766Z,1007.63
2022-09-06T05:42:53.757Z,1007.65
2022-09-06T05:43:53.731Z,1007.69
2022-09-06T05:44:53.725Z,1007.73
2022-09-06T05:45:53.793Z,1007.74
2022-09-06T05:46:53.722Z,1007.71
2022-09-06T05:47:53.699Z,1007.63
2022-09-06T05:48:53.689Z,1007.63
2022-09-06T05:49:53.680Z,1007.59
2022-09-06T05:50:53.677Z,1007.57
2022-09-06T05:51:53.663Z,1007.52
2022-09-06T05:52:53.638Z,1007.57
2022-09-06T05:53:53.639Z,1007.58
2022-09-06T05:54:54.608Z,1007.56
2022-09-06T05:55:53.611Z,1007.62
2022-09-06T05:56:53.624Z,1007.65
2022-09-06T05:57:53.585Z,1007.62
2022-09-06T05:58:53.571Z,1007.69
2022-09-06T05:59:53.546Z,1007.63
2022-09-06T06:00:53.599Z,1007.71
2022-09-06T06:01:53.637Z,1007.73
2022-09-06T06:02:53.535Z,1007.76
2022-09-06T06:03:53.532Z,1007.78
2022-09-06T06:04:53.508Z,1007.77
2022-09-06T06:05:53.499Z,1007.82
2022-09-06T06:06:53.489Z,1007.86
2022-09-06T06:07:53.490Z,1007.84
2022-09-06T06:08:53.471Z,1007.84
2022-09-06T06:09:53.472Z,1007.88
2022-09-06T06:10:53.443Z,1007.94
2022-09-06T06:11:53.430Z,1008.00
2022-09-06T06:12:53.430Z,1007.95
2022-09-06T06:13:53.421Z,1007.94
2022-09-06T06:14:53.404Z,1007.95
2022-09-06T06:15:53.425Z,1007.95
2022-09-06T06:16:53.398Z,1007.99
2022-09-06T06:17:53.376Z,1007.98
2022-09-06T06:18:53.362Z,1007.99
2022-09-06T06:19:53.348Z,1007.99
2022-09-06T06:20:53.344Z,1008.00
2022-09-06T06:21:53.326Z,1007.96
2022-09-06T06:22:53.311Z,1007.98
2022-09-06T06:23:53.304Z,1007.95
2022-09-06T06:24:53.303Z,1008.01
2022-09-06T06:25:53.511Z,1007.95
2022-09-06T06:26:53.271Z,1008.01
2022-09-06T06:27:53.296Z,1007.97
2022-09-06T06:28:53.242Z,1007.97
2022-09-06T06:29:53.238Z,1008.01
2022-09-06T06:30:53.217Z,1008.00
2022-09-06T06:31:53.265Z,1007.99
2022-09-06T06:32:53.197Z,1007.99
2022-09-06T06:33:53.200Z,1007.97
2022-09-06T06:34:53.184Z,1007.95
2022-09-06T06:35:53.166Z,1007.90
2022-09-06T06:36:53.162Z,1007.97
2022-09-06T06:37:53.148Z,1007.90
2022-09-06T06:38:53.170Z,1007.89
2022-09-06T06:39:53.205Z,1007.84
2022-09-06T06:40:57.213Z,1007.84
2022-09-06T06:41:54.106Z,1007.83
2022-09-06T06:42:53.105Z,1007.89
2022-09-06T06:43:53.084Z,1007.89
2022-09-06T06:44:53.071Z,1007.87
2022-09-06T06:45:53.125Z,1007.90
2022-09-06T06:46:53.048Z,1007.90
2022-09-06T06:47:53.081Z,1007.90
2022-09-06T06:48:55.056Z,1007.85
2022-09-06T06:49:53.041Z,1007.88
2022-09-06T06:50:53.018Z,1007.91
2022-09-06T06:51:52.994Z,1007.95
2022-09-06T06:52:53.039Z,1007.91
2022-09-06T06:53:52.955Z,1007.97
2022-09-06T06:54:52.967Z,1007.96
2022-09-06T06:55:52.963Z,1007.95
2022-09-06T06:56:52.954Z,1007.94
2022-09-06T06:57:52.936Z,1007.93
2022-09-06T06:58:52.921Z,1007.90
2022-09-06T06:59:52.898Z,1007.90
2022-09-06T07:00:52.987Z,1007.90
2022-09-06T07:01:52.966Z,1007.92
2022-09-06T07:02:52.886Z,1007.94
2022-09-06T07:03:52.852Z,1007.93
2022-09-06T07:04:52.851Z,1007.91
2022-09-06T07:07:53.822Z,1007.87
2022-09-06T07:08:52.813Z,1007.87
2022-09-06T07:10:53.806Z,1007.82
2022-09-06T07:11:52.770Z,1007.81
2022-09-06T07:12:52.757Z,1007.83
2022-09-06T07:13:52.759Z,1007.84
2022-09-06T07:14:52.754Z,1007.83
2022-09-06T07:15:52.782Z,1007.82
2022-09-06T07:16:52.726Z,1007.87
2022-09-06T07:17:52.712Z,1007.85
2022-09-06T07:18:52.689Z,1007.82
2022-09-06T07:21:53.660Z,1007.84
2022-09-06T07:22:52.654Z,1007.87
2022-09-06T07:24:08.992Z,1007.84
2022-09-06T07:24:53.633Z,1007.83
2022-09-06T07:25:52.628Z,1007.81
2022-09-06T07:27:53.604Z,1007.80
2022-09-06T07:28:52.584Z,1007.75
2022-09-06T07:29:52.595Z,1007.76
2022-09-06T07:30:52.587Z,1007.81
2022-09-06T07:32:53.542Z,1007.82
2022-09-06T07:33:55.193Z,1007.86
2022-09-06T07:34:52.541Z,1007.87
2022-09-06T07:35:52.507Z,1007.85
2022-09-06T07:36:52.499Z,1007.82
2022-09-06T07:37:52.485Z,1007.79
2022-09-06T07:38:52.480Z,1007.86
2022-09-06T07:39:52.508Z,1007.89
2022-09-06T07:40:52.477Z,1007.90
2022-09-06T07:41:52.451Z,1007.94
2022-09-06T07:42:52.454Z,1007.97
2022-09-06T07:43:52.437Z,1008.02
2022-09-06T07:44:52.409Z,1008.02
2022-09-06T07:45:52.410Z,1007.98
2022-09-06T07:46:52.710Z,1007.96
2022-09-06T07:47:59.587Z,1008.01
2022-09-06T07:48:53.375Z,1007.97
2022-09-06T07:50:55.894Z,1007.96
2022-09-06T07:51:53.343Z,1007.92
2022-09-06T07:53:09.567Z,1007.94
2022-09-06T07:54:06.991Z,1007.94
2022-09-06T07:54:53.307Z,1007.99
2022-09-06T07:55:52.289Z,1007.99
2022-09-06T07:56:52.282Z,1008.02
2022-09-06T07:57:52.488Z,1008.02
2022-09-06T07:58:52.257Z,1008.01
2022-09-06T07:59:52.243Z,1007.96
2022-09-06T08:00:52.309Z,1007.94
2022-09-06T08:01:52.256Z,1007.92
2022-09-06T08:02:52.212Z,1007.91
2022-09-06T08:03:52.223Z,1007.94
2022-09-06T08:04:52.189Z,1007.94
2022-09-06T08:09:52.140Z,1007.80
2022-09-06T08:10:52.131Z,1007.77
2022-09-06T08:11:52.112Z,1007.85
2022-09-06T08:12:52.102Z,1007.84
2022-09-06T08:13:52.084Z,1007.90
2022-09-06T08:14:52.085Z,1007.93
2022-09-06T08:15:52.111Z,1007.93
2022-09-06T08:16:52.053Z,1007.92
2022-09-06T08:17:52.050Z,1007.93
2022-09-06T08:18:52.051Z,1007.93
2022-09-06T08:19:52.035Z,1007.90
2022-09-06T08:20:52.023Z,1007.87
2022-09-06T08:21:52.032Z,1007.86
2022-09-06T08:22:52.035Z,1007.85
2022-09-06T08:23:51.975Z,1007.79
2022-09-06T08:24:51.971Z,1007.76
2022-09-06T08:25:51.952Z,1007.74
2022-09-06T08:26:51.974Z,1007.69
2022-09-06T08:27:51.944Z,1007.73
2022-09-06T08:28:52.119Z,1007.64
2022-09-06T08:29:51.932Z,1007.64
2022-09-06T08:30:51.903Z,1007.58
2022-09-06T08:31:51.969Z,1007.57
2022-09-06T08:32:51.885Z,1007.53
2022-09-06T08:33:51.871Z,1007.46
2022-09-06T08:34:51.872Z,1007.47
2022-09-06T08:35:51.848Z,1007.45
2022-09-06T08:36:51.819Z,1007.45
2022-09-06T08:37:51.846Z,1007.46
2022-09-06T08:38:51.806Z,1007.50
2022-09-06T08:39:51.849Z,1007.49
2022-09-06T08:40:51.811Z,1007.49
2022-09-06T08:41:51.792Z,1007.49
2022-09-06T08:42:51.781Z,1007.48
2022-09-06T08:45:55.161Z,1007.38
2022-09-06T08:46:51.816Z,1007.36
2022-09-06T08:47:51.708Z,1007.35
2022-09-06T08:48:51.698Z,1007.33
2022-09-06T08:49:51.695Z,1007.34
2022-09-06T08:50:51.685Z,1007.32
2022-09-06T08:51:51.682Z,1007.23
2022-09-06T08:53:15.635Z,1007.21
2022-09-06T08:53:52.646Z,1007.27
2022-09-06T08:54:51.639Z,1007.30
2022-09-06T08:55:51.652Z,1007.38
2022-09-06T08:56:51.647Z,1007.40
2022-09-06T08:57:51.603Z,1007.44
2022-09-06T08:58:51.594Z,1007.45
2022-09-06T08:59:51.639Z,1007.46
2022-09-06T09:00:51.704Z,1007.41
2022-09-06T09:01:51.616Z,1007.41
2022-09-06T09:02:51.559Z,1007.42
2022-09-06T09:03:51.568Z,1007.41
2022-09-06T09:04:51.560Z,1007.44
2022-09-06T09:05:51.533Z,1007.49
2022-09-06T09:06:51.525Z,1007.44
2022-09-06T09:07:51.512Z,1007.50
2022-09-06T09:08:51.486Z,1007.54
2022-09-06T09:09:51.496Z,1007.53
2022-09-06T09:10:51.457Z,1007.58
2022-09-06T09:11:51.448Z,1007.53
2022-09-06T09:12:51.449Z,1007.55
2022-09-06T09:13:51.420Z,1007.52
2022-09-06T09:14:51.421Z,1007.51
2022-09-06T09:15:51.464Z,1007.49
2022-09-06T09:16:51.409Z,1007.53
2022-09-06T09:17:51.390Z,1007.46
2022-09-06T09:18:51.376Z,1007.44
2022-09-06T09:19:51.356Z,1007.45
2022-09-06T09:20:51.338Z,1007.42
2022-09-06T09:21:51.349Z,1007.39
2022-09-06T09:22:51.330Z,1007.37
2022-09-06T09:23:51.311Z,1007.35
2022-09-06T09:24:51.328Z,1007.36
2022-09-06T09:25:51.293Z,1007.38
2022-09-06T09:26:51.341Z,1007.36
2022-09-06T09:27:51.272Z,1007.40
2022-09-06T09:28:51.252Z,1007.39
2022-09-06T09:30:52.473Z,1007.35
2022-09-06T09:31:53.420Z,1007.38
2022-09-06T09:32:51.220Z,1007.42
2022-09-06T09:33:51.215Z,1007.45
2022-09-06T09:34:51.193Z,1007.40
2022-09-06T09:35:51.259Z,1007.41
2022-09-06T09:37:55.888Z,1007.35
2022-09-06T09:38:52.151Z,1007.36
2022-09-06T09:39:51.184Z,1007.40
2022-09-06T09:40:51.144Z,1007.39
2022-09-06T09:41:51.121Z,1007.36
2022-09-06T09:42:51.114Z,1007.41
2022-09-06T09:43:51.109Z,1007.38
2022-09-06T09:44:51.099Z,1007.39
2022-09-06T09:45:51.091Z,1007.39
2022-09-06T09:46:51.140Z,1007.37
2022-09-06T09:47:51.063Z,1007.36
2022-09-06T09:48:51.039Z,1007.32
2022-09-06T09:49:51.034Z,1007.29
2022-09-06T09:50:51.041Z,1007.31
2022-09-06T09:51:51.002Z,1007.33
2022-09-06T09:52:51.008Z,1007.30
2022-09-06T09:53:51.000Z,1007.30
2022-09-06T09:54:50.985Z,1007.30
2022-09-06T09:55:50.977Z,1007.26
2022-09-06T09:56:50.965Z,1007.21
2022-09-06T09:57:50.954Z,1007.18
2022-09-06T09:58:50.935Z,1007.20
2022-09-06T09:59:50.937Z,1007.20
2022-09-06T10:00:50.957Z,1007.21
2022-09-06T10:01:50.952Z,1007.21
2022-09-06T10:02:50.894Z,1007.19
2022-09-06T10:04:51.948Z,1007.21
2022-09-06T10:05:51.286Z,1007.18
2022-09-06T10:07:51.910Z,1007.25
2022-09-06T10:08:50.825Z,1007.18
2022-09-06T10:09:50.819Z,1007.22
2022-09-06T10:10:50.809Z,1007.24
2022-09-06T10:11:50.790Z,1007.18
2022-09-06T10:12:50.785Z,1007.17
2022-09-06T10:13:50.781Z,1007.14
2022-09-06T10:14:50.777Z,1007.17
2022-09-06T10:15:50.801Z,1007.16
2022-09-06T10:16:50.749Z,1007.18
2022-09-06T10:17:50.736Z,1007.17
2022-09-06T10:18:50.723Z,1007.18
2022-09-06T10:19:50.723Z,1007.16
2022-09-06T10:20:50.693Z,1007.12
2022-09-06T10:21:50.706Z,1007.11
2022-09-06T10:22:50.686Z,1007.11
2022-09-06T10:24:51.653Z,1007.11
2022-09-06T10:25:50.646Z,1007.11
2022-09-06T10:26:50.635Z,1007.11
2022-09-06T10:28:10.569Z,1007.06
2022-09-06T10:28:51.626Z,1007.09
2022-09-06T10:29:50.598Z,1007.07
2022-09-06T10:30:51.328Z,1007.12
2022-09-06T10:31:50.591Z,1007.08
2022-09-06T10:32:50.758Z,1007.10
2022-09-06T10:33:50.563Z,1007.11
2022-09-06T10:34:50.559Z,1007.10
2022-09-06T10:35:50.535Z,1007.13
2022-09-06T10:36:50.541Z,1007.14
2022-09-06T10:37:50.512Z,1007.09
2022-09-06T10:38:50.508Z,1007.09
2022-09-06T10:39:50.556Z,1007.07
2022-09-06T10:40:50.506Z,1007.04
2022-09-06T10:41:50.478Z,1007.03
2022-09-06T10:42:50.474Z,1006.99
2022-09-06T10:43:50.470Z,1006.99
2022-09-06T10:44:50.450Z,1006.96
2022-09-06T10:45:50.445Z,1006.99
2022-09-06T10:46:50.468Z,1006.96
2022-09-06T10:47:50.414Z,1006.95
2022-09-06T10:48:50.421Z,1006.88
2022-09-06T10:49:50.411Z,1006.90
2022-09-06T10:50:50.393Z,1006.88
2022-09-06T10:51:50.378Z,1006.85
2022-09-06T10:52:50.359Z,1006.87
2022-09-06T10:53:50.350Z,1006.84
2022-09-06T10:54:50.351Z,1006.83
2022-09-06T10:55:50.327Z,1006.85
2022-09-06T10:56:50.333Z,1006.87
2022-09-06T10:59:52.049Z,1006.82
2022-09-06T11:00:50.274Z,1006.83
2022-09-06T11:01:50.384Z,1006.79
2022-09-06T11:05:51.232Z,1006.77
2022-09-06T11:06:50.224Z,1006.74
2022-09-06T11:08:53.305Z,1006.73
2022-09-06T11:09:50.185Z,1006.74
2022-09-06T11:10:50.181Z,1006.74
2022-09-06T11:11:50.161Z,1006.70
2022-09-06T11:12:50.145Z,1006.72
2022-09-06T11:13:50.155Z,1006.73
2022-09-06T11:14:50.129Z,1006.71
2022-09-06T11:15:50.220Z,1006.70
2022-09-06T11:16:50.110Z,1006.71
2022-09-06T11:17:50.098Z,1006.77
2022-09-06T11:18:50.090Z,1006.77
2022-09-06T11:19:50.071Z,1006.76
2022-09-06T11:20:50.069Z,1006.77
2022-09-06T11:21:50.060Z,1006.79
2022-09-06T11:22:50.038Z,1006.78
2022-09-06T11:23:50.040Z,1006.77
2022-09-06T11:24:50.033Z,1006.80
2022-09-06T11:25:50.020Z,1006.78
2022-09-06T11:26:50.016Z,1006.82
2022-09-06T11:27:49.992Z,1006.75
2022-09-06T11:28:49.974Z,1006.77
2022-09-06T11:29:49.974Z,1006.79
2022-09-06T11:30:50.027Z,1006.73
2022-09-06T11:32:50.931Z,1006.67
2022-09-06T11:33:49.939Z,1006.66
2022-09-06T11:34:50.005Z,1006.69
2022-09-06T11:35:49.907Z,1006.67
2022-09-06T11:36:49.919Z,1006.71
2022-09-06T11:37:49.893Z,1006.69
2022-09-06T11:38:49.888Z,1006.70
2022-09-06T11:40:50.866Z,1006.74
2022-09-06T11:41:49.858Z,1006.72
2022-09-06T11:42:49.843Z,1006.74
2022-09-06T11:43:49.814Z,1006.70
2022-09-06T11:44:49.815Z,1006.70
2022-09-06T11:45:49.808Z,1006.73
2022-09-06T11:46:49.831Z,1006.65
2022-09-06T11:47:49.774Z,1006.65
2022-09-06T11:48:49.775Z,1006.62
2022-09-06T11:49:49.781Z,1006.62
2022-09-06T11:50:49.762Z,1006.60
2022-09-06T11:51:49.744Z,1006.59
2022-09-06T11:52:49.774Z,1006.56
2022-09-06T11:53:49.731Z,1006.51
2022-09-06T11:54:49.737Z,1006.52
2022-09-06T11:55:49.729Z,1006.50
2022-09-06T11:56:49.700Z,1006.50
2022-09-06T11:57:49.756Z,1006.51
2022-09-06T11:58:49.686Z,1006.50
2022-09-06T11:59:49.663Z,1006.49
2022-09-06T12:00:49.649Z,1006.48
2022-09-06T12:01:49.650Z,1006.49
2022-09-06T12:02:49.727Z,1006.41
2022-09-06T12:04:06.525Z,1006.40
2022-09-06T12:04:50.812Z,1006.35
2022-09-06T12:05:49.605Z,1006.35
2022-09-06T12:06:49.626Z,1006.34
2022-09-06T12:07:49.599Z,1006.32
2022-09-06T12:08:49.588Z,1006.32
2022-09-06T12:09:49.574Z,1006.25
2022-09-06T12:10:49.553Z,1006.25
2022-09-06T12:11:49.552Z,1006.19
2022-09-06T12:12:49.552Z,1006.21
2022-09-06T12:13:49.533Z,1006.23
2022-09-06T12:14:49.526Z,1006.20
2022-09-06T12:15:49.540Z,1006.22
2022-09-06T12:16:49.502Z,1006.15
2022-09-06T12:17:49.492Z,1006.12
2022-09-06T12:18:49.493Z,1006.11
2022-09-06T12:19:49.483Z,1006.06
2022-09-06T12:20:49.472Z,1006.11
2022-09-06T12:21:49.463Z,1006.04
2022-09-06T12:22:49.444Z,1006.04
2022-09-06T12:23:49.462Z,1006.09
2022-09-06T12:24:49.449Z,1006.09
2022-09-06T12:25:49.417Z,1006.05
2022-09-06T12:26:54.436Z,1006.08
2022-09-06T12:27:50.402Z,1006.06
2022-09-06T12:28:49.410Z,1006.04
2022-09-06T12:29:49.382Z,1006.02
2022-09-06T12:30:49.438Z,1006.06
2022-09-06T12:31:49.432Z,1006.07
2022-09-06T12:32:49.365Z,1006.05
2022-09-06T12:33:49.351Z,1006.05
2022-09-06T12:35:58.388Z,1005.94
2022-09-06T12:36:50.312Z,1005.94
2022-09-06T12:37:49.284Z,1005.93
2022-09-06T12:38:49.301Z,1005.88
2022-09-06T12:39:49.327Z,1005.91
2022-09-06T12:40:49.279Z,1005.91
2022-09-06T12:41:49.260Z,1005.89
2022-09-06T12:42:49.272Z,1005.89
2022-09-06T12:43:49.257Z,1005.87
2022-09-06T12:44:49.259Z,1005.87
2022-09-06T12:45:49.224Z,1005.85
2022-09-06T12:46:49.280Z,1005.86
2022-09-06T12:47:49.202Z,1005.85
2022-09-06T12:48:49.213Z,1005.80
2022-09-06T12:49:49.193Z,1005.80
2022-09-06T12:50:49.180Z,1005.84
2022-09-06T12:51:49.156Z,1005.80
2022-09-06T12:52:49.146Z,1005.73